sensor_id;sensor_type;location;lat;lon;timestamp;pressure;altitude;pressure_sealevel;temperature;humidity
2681;BME280;1350;42.134;24.708;2023-03-14T00:01:08;99911.69;;;5.10;74.05
2681;BME280;1350;42.134;24.708;2023-03-14T00:03:35;99905.38;;;4.84;78.89
2681;BME280;1350;42.134;24.708;2023-03-14T00:06:05;99910.78;;;4.78;79.93
2681;BME280;1350;42.134;24.708;2023-03-14T00:08:32;99906.16;;;4.87;79.58
2681;BME280;1350;42.134;24.708;2023-03-14T00:11:04;99900.28;;;4.78;79.67
2681;BME280;1350;42.134;24.708;2023-03-14T00:13:31;99903.28;;;4.61;79.23
2681;BME280;1350;42.134;24.708;2023-03-14T00:16:02;99902.88;;;4.41;80.14
2681;BME280;1350;42.134;24.708;2023-03-14T00:18:28;99899.72;;;4.27;80.18
2681;BME280;1350;42.134;24.708;2023-03-14T00:20:58;99896.31;;;4.22;80.12
2681;BME280;1350;42.134;24.708;2023-03-14T00:23:26;99883.06;;;4.28;79.49
2681;BME280;1350;42.134;24.708;2023-03-14T00:25:53;99885.78;;;4.24;79.62
2681;BME280;1350;42.134;24.708;2023-03-14T00:28:20;99882.88;;;4.36;78.46
2681;BME280;1350;42.134;24.708;2023-03-14T00:30:46;99873.16;;;4.41;78.95
2681;BME280;1350;42.134;24.708;2023-03-14T00:33:13;99870.88;;;4.26;78.12
2681;BME280;1350;42.134;24.708;2023-03-14T00:35:40;99869.41;;;4.13;78.75
2681;BME280;1350;42.134;24.708;2023-03-14T00:38:06;99867.41;;;4.24;78.03
2681;BME280;1350;42.134;24.708;2023-03-14T00:40:38;99857.88;;;4.20;78.11
2681;BME280;1350;42.134;24.708;2023-03-14T00:43:05;99863.00;;;4.26;77.20
2681;BME280;1350;42.134;24.708;2023-03-14T00:45:32;99859.78;;;4.13;77.35
2681;BME280;1350;42.134;24.708;2023-03-14T00:47:58;99853.81;;;4.07;77.77
2681;BME280;1350;42.134;24.708;2023-03-14T00:50:25;99855.41;;;4.12;78.32
2681;BME280;1350;42.134;24.708;2023-03-14T00:52:52;99847.44;;;4.17;77.41
2681;BME280;1350;42.134;24.708;2023-03-14T00:55:18;99850.09;;;4.15;77.74
2681;BME280;1350;42.134;24.708;2023-03-14T00:57:47;99843.41;;;4.02;78.28
2681;BME280;1350;42.134;24.708;2023-03-14T01:00:14;99835.31;;;4.13;77.92
2681;BME280;1350;42.134;24.708;2023-03-14T01:02:41;99834.56;;;4.06;77.73
2681;BME280;1350;42.134;24.708;2023-03-14T01:05:08;99829.81;;;4.23;77.65
2681;BME280;1350;42.134;24.708;2023-03-14T01:07:35;99820.22;;;4.22;76.87
2681;BME280;1350;42.134;24.708;2023-03-14T01:10:03;99825.94;;;4.03;77.68
2681;BME280;1350;42.134;24.708;2023-03-14T01:12:30;99811.06;;;4.02;77.78
2681;BME280;1350;42.134;24.708;2023-03-14T01:14:58;99818.03;;;4.04;78.27
2681;BME280;1350;42.134;24.708;2023-03-14T01:17:25;99818.13;;;4.00;77.96
2681;BME280;1350;42.134;24.708;2023-03-14T01:19:52;99816.53;;;3.93;78.14
2681;BME280;1350;42.134;24.708;2023-03-14T01:22:18;99813.28;;;3.80;79.52
2681;BME280;1350;42.134;24.708;2023-03-14T01:24:46;99812.59;;;3.74;80.42
2681;BME280;1350;42.134;24.708;2023-03-14T01:27:13;99812.06;;;3.57;81.38
2681;BME280;1350;42.134;24.708;2023-03-14T01:29:40;99817.44;;;3.51;81.96
2681;BME280;1350;42.134;24.708;2023-03-14T01:32:08;99817.25;;;3.60;81.41
2681;BME280;1350;42.134;24.708;2023-03-14T01:34:34;99817.34;;;3.55;82.25
2681;BME280;1350;42.134;24.708;2023-03-14T01:37:01;99816.22;;;3.67;81.10
2681;BME280;1350;42.134;24.708;2023-03-14T01:39:28;99813.44;;;3.74;80.45
2681;BME280;1350;42.134;24.708;2023-03-14T01:41:55;99812.22;;;3.90;79.70
2681;BME280;1350;42.134;24.708;2023-03-14T01:44:21;99810.59;;;3.83;80.52
2681;BME280;1350;42.134;24.708;2023-03-14T01:46:48;99802.88;;;3.77;81.30
2681;BME280;1350;42.134;24.708;2023-03-14T01:49:21;99806.69;;;3.64;81.54
2681;BME280;1350;42.134;24.708;2023-03-14T01:51:52;99809.03;;;3.76;81.42
2681;BME280;1350;42.134;24.708;2023-03-14T01:54:25;99804.06;;;3.64;80.72
2681;BME280;1350;42.134;24.708;2023-03-14T01:56:58;99799.91;;;3.53;80.64
2681;BME280;1350;42.134;24.708;2023-03-14T01:59:29;99798.00;;;3.61;80.57
2681;BME280;1350;42.134;24.708;2023-03-14T02:01:57;99794.47;;;3.62;79.87
2681;BME280;1350;42.134;24.708;2023-03-14T02:04:27;99789.25;;;3.60;79.30
2681;BME280;1350;42.134;24.708;2023-03-14T02:06:59;99796.94;;;3.69;78.70
2681;BME280;1350;42.134;24.708;2023-03-14T02:09:27;99791.63;;;3.72;79.39
2681;BME280;1350;42.134;24.708;2023-03-14T02:11:54;99792.63;;;3.67;80.57
2681;BME280;1350;42.134;24.708;2023-03-14T02:14:27;99792.28;;;3.42;81.86
2681;BME280;1350;42.134;24.708;2023-03-14T02:16:55;99792.19;;;3.46;81.45
2681;BME280;1350;42.134;24.708;2023-03-14T02:19:30;99787.19;;;3.34;81.12
2681;BME280;1350;42.134;24.708;2023-03-14T02:22:05;99772.31;;;3.36;81.33
2681;BME280;1350;42.134;24.708;2023-03-14T02:24:38;99781.31;;;3.22;82.36
2681;BME280;1350;42.134;24.708;2023-03-14T02:27:11;99780.97;;;3.38;82.66
2681;BME280;1350;42.134;24.708;2023-03-14T02:29:42;99781.13;;;3.31;83.11
2681;BME280;1350;42.134;24.708;2023-03-14T02:32:12;99779.19;;;3.40;82.19
2681;BME280;1350;42.134;24.708;2023-03-14T02:34:40;99781.97;;;3.33;81.86
2681;BME280;1350;42.134;24.708;2023-03-14T02:37:09;99783.38;;;3.49;81.32
2681;BME280;1350;42.134;24.708;2023-03-14T02:39:38;99783.56;;;3.40;82.26
2681;BME280;1350;42.134;24.708;2023-03-14T02:42:06;99779.06;;;3.46;81.87
2681;BME280;1350;42.134;24.708;2023-03-14T02:44:34;99782.59;;;3.45;81.84
2681;BME280;1350;42.134;24.708;2023-03-14T02:47:02;99778.22;;;3.44;82.25
2681;BME280;1350;42.134;24.708;2023-03-14T02:49:30;99778.22;;;3.44;82.68
2681;BME280;1350;42.134;24.708;2023-03-14T02:51:58;99782.41;;;3.55;82.61
2681;BME280;1350;42.134;24.708;2023-03-14T02:54:25;99787.88;;;3.44;82.95
2681;BME280;1350;42.134;24.708;2023-03-14T02:56:51;99794.19;;;3.34;83.75
2681;BME280;1350;42.134;24.708;2023-03-14T02:59:18;99804.41;;;3.46;82.82
2681;BME280;1350;42.134;24.708;2023-03-14T03:01:48;99789.81;;;3.34;83.34
2681;BME280;1350;42.134;24.708;2023-03-14T03:04:15;99793.28;;;3.36;83.90
2681;BME280;1350;42.134;24.708;2023-03-14T03:06:42;99797.44;;;3.45;83.24
2681;BME280;1350;42.134;24.708;2023-03-14T03:09:08;99800.03;;;3.46;83.44
2681;BME280;1350;42.134;24.708;2023-03-14T03:11:35;99798.31;;;3.45;83.72
2681;BME280;1350;42.134;24.708;2023-03-14T03:14:02;99800.91;;;3.47;84.21
2681;BME280;1350;42.134;24.708;2023-03-14T03:16:29;99802.75;;;3.42;84.85
2681;BME280;1350;42.134;24.708;2023-03-14T03:18:57;99800.34;;;3.31;86.03
2681;BME280;1350;42.134;24.708;2023-03-14T03:21:23;99800.28;;;3.34;87.41
2681;BME280;1350;42.134;24.708;2023-03-14T03:23:50;99804.00;;;3.23;88.61
2681;BME280;1350;42.134;24.708;2023-03-14T03:26:17;99798.78;;;3.21;89.16
2681;BME280;1350;42.134;24.708;2023-03-14T03:28:44;99796.19;;;3.20;90.63
2681;BME280;1350;42.134;24.708;2023-03-14T03:31:11;99798.25;;;3.06;92.29
2681;BME280;1350;42.134;24.708;2023-03-14T03:33:38;99787.72;;;3.09;92.64
2681;BME280;1350;42.134;24.708;2023-03-14T03:36:08;99796.16;;;3.21;91.48
2681;BME280;1350;42.134;24.708;2023-03-14T03:38:35;99789.34;;;3.14;91.24
2681;BME280;1350;42.134;24.708;2023-03-14T03:41:03;99787.66;;;3.12;90.52
2681;BME280;1350;42.134;24.708;2023-03-14T03:43:30;99789.34;;;3.14;91.02
2681;BME280;1350;42.134;24.708;2023-03-14T03:45:57;99787.81;;;3.01;92.10
2681;BME280;1350;42.134;24.708;2023-03-14T03:48:24;99788.03;;;2.91;92.34
2681;BME280;1350;42.134;24.708;2023-03-14T03:50:50;99797.66;;;2.90;93.51
2681;BME280;1350;42.134;24.708;2023-03-14T03:53:18;99799.41;;;2.90;93.48
2681;BME280;1350;42.134;24.708;2023-03-14T03:55:45;99790.72;;;2.88;94.12
2681;BME280;1350;42.134;24.708;2023-03-14T03:58:12;99788.44;;;2.70;94.78
2681;BME280;1350;42.134;24.708;2023-03-14T04:00:39;99788.59;;;2.61;96.10
2681;BME280;1350;42.134;24.708;2023-03-14T04:03:05;99785.78;;;2.71;94.87
2681;BME280;1350;42.134;24.708;2023-03-14T04:05:32;99780.09;;;2.48;95.08
2681;BME280;1350;42.134;24.708;2023-03-14T04:07:59;99773.91;;;2.51;94.84
2681;BME280;1350;42.134;24.708;2023-03-14T04:10:28;99777.38;;;2.53;94.65
2681;BME280;1350;42.134;24.708;2023-03-14T04:12:55;99772.59;;;2.77;93.36
2681;BME280;1350;42.134;24.708;2023-03-14T04:15:21;99777.72;;;2.82;92.06
2681;BME280;1350;42.134;24.708;2023-03-14T04:17:48;99766.16;;;2.95;91.65
2681;BME280;1350;42.134;24.708;2023-03-14T04:20:15;99775.94;;;2.85;91.44
2681;BME280;1350;42.134;24.708;2023-03-14T04:22:41;99773.31;;;2.85;91.39
2681;BME280;1350;42.134;24.708;2023-03-14T04:25:08;99760.75;;;3.04;92.57
2681;BME280;1350;42.134;24.708;2023-03-14T04:27:36;99762.19;;;3.18;92.85
2681;BME280;1350;42.134;24.708;2023-03-14T04:30:04;99764.16;;;3.07;92.92
2681;BME280;1350;42.134;24.708;2023-03-14T04:32:31;99760.47;;;3.17;92.52
2681;BME280;1350;42.134;24.708;2023-03-14T04:34:57;99758.09;;;3.05;91.82
2681;BME280;1350;42.134;24.708;2023-03-14T04:37:24;99757.47;;;2.93;92.63
2681;BME280;1350;42.134;24.708;2023-03-14T04:39:51;99759.47;;;2.79;92.99
2681;BME280;1350;42.134;24.708;2023-03-14T04:42:17;99760.19;;;2.87;92.47
2681;BME280;1350;42.134;24.708;2023-03-14T04:44:45;99754.56;;;3.06;91.90
2681;BME280;1350;42.134;24.708;2023-03-14T04:47:14;99753.06;;;2.95;92.02
2681;BME280;1350;42.134;24.708;2023-03-14T04:49:41;99748.38;;;3.12;92.16
2681;BME280;1350;42.134;24.708;2023-03-14T04:52:08;99758.94;;;4.58;87.43
2681;BME280;1350;42.134;24.708;2023-03-14T04:54:35;99758.25;;;6.58;76.98
2681;BME280;1350;42.134;24.708;2023-03-14T04:57:02;99746.94;;;8.42;65.72
2681;BME280;1350;42.134;24.708;2023-03-14T04:59:28;99759.31;;;9.81;59.34
2681;BME280;1350;42.134;24.708;2023-03-14T05:01:56;99743.28;;;10.91;54.73
2681;BME280;1350;42.134;24.708;2023-03-14T05:04:23;99753.97;;;11.06;52.02
2681;BME280;1350;42.134;24.708;2023-03-14T05:06:50;99761.13;;;10.53;53.02
2681;BME280;1350;42.134;24.708;2023-03-14T05:09:17;99766.38;;;9.80;54.94
2681;BME280;1350;42.134;24.708;2023-03-14T05:11:43;99771.91;;;9.37;55.98
2681;BME280;1350;42.134;24.708;2023-03-14T05:14:10;99767.88;;;8.89;57.94
2681;BME280;1350;42.134;24.708;2023-03-14T05:16:37;99769.25;;;8.97;56.24
2681;BME280;1350;42.134;24.708;2023-03-14T05:19:06;99771.31;;;9.11;56.63
2681;BME280;1350;42.134;24.708;2023-03-14T05:21:33;99770.53;;;9.47;56.63
2681;BME280;1350;42.134;24.708;2023-03-14T05:24:00;99774.47;;;9.96;58.36
2681;BME280;1350;42.134;24.708;2023-03-14T05:26:26;99775.25;;;10.35;57.34
2681;BME280;1350;42.134;24.708;2023-03-14T05:28:53;99779.69;;;10.53;55.57
2681;BME280;1350;42.134;24.708;2023-03-14T05:31:20;99784.59;;;10.61;55.38
2681;BME280;1350;42.134;24.708;2023-03-14T05:33:47;99778.50;;;10.59;54.29
2681;BME280;1350;42.134;24.708;2023-03-14T05:36:16;99781.41;;;10.71;53.19
2681;BME280;1350;42.134;24.708;2023-03-14T05:38:43;99776.44;;;10.99;52.52
2681;BME280;1350;42.134;24.708;2023-03-14T05:41:10;99777.75;;;11.25;51.76
2681;BME280;1350;42.134;24.708;2023-03-14T05:43:37;99782.03;;;10.93;50.63
2681;BME280;1350;42.134;24.708;2023-03-14T05:46:05;99775.25;;;10.71;51.25
2681;BME280;1350;42.134;24.708;2023-03-14T05:48:32;99768.84;;;11.09;50.27
2681;BME280;1350;42.134;24.708;2023-03-14T05:50:58;99784.53;;;11.30;50.03
2681;BME280;1350;42.134;24.708;2023-03-14T05:53:27;99782.97;;;11.43;49.35
2681;BME280;1350;42.134;24.708;2023-03-14T05:55:55;99785.47;;;11.29;49.06
2681;BME280;1350;42.134;24.708;2023-03-14T05:58:22;99784.53;;;11.30;49.39
2681;BME280;1350;42.134;24.708;2023-03-14T06:00:50;99776.09;;;11.39;49.49
2681;BME280;1350;42.134;24.708;2023-03-14T06:03:17;99779.81;;;11.69;48.81
2681;BME280;1350;42.134;24.708;2023-03-14T06:05:43;99769.84;;;12.37;48.02
2681;BME280;1350;42.134;24.708;2023-03-14T06:08:10;99771.06;;;12.31;47.70
2681;BME280;1350;42.134;24.708;2023-03-14T06:10:38;99773.28;;;12.08;47.97
2681;BME280;1350;42.134;24.708;2023-03-14T06:13:05;99769.47;;;11.80;47.81
2681;BME280;1350;42.134;24.708;2023-03-14T06:15:31;99776.91;;;11.74;48.09
2681;BME280;1350;42.134;24.708;2023-03-14T06:18:00;99764.50;;;11.90;47.97
2681;BME280;1350;42.134;24.708;2023-03-14T06:20:27;99762.47;;;12.11;47.08
2681;BME280;1350;42.134;24.708;2023-03-14T06:22:54;99758.09;;;12.41;47.32
2681;BME280;1350;42.134;24.708;2023-03-14T06:25:20;99763.56;;;12.53;47.19
2681;BME280;1350;42.134;24.708;2023-03-14T06:27:48;99750.94;;;13.31;45.75
2681;BME280;1350;42.134;24.708;2023-03-14T06:30:16;99749.88;;;13.90;44.35
2681;BME280;1350;42.134;24.708;2023-03-14T06:32:43;99743.31;;;13.39;43.75
2681;BME280;1350;42.134;24.708;2023-03-14T06:35:09;99751.22;;;13.83;43.82
2681;BME280;1350;42.134;24.708;2023-03-14T06:37:36;99747.38;;;14.29;43.75
2681;BME280;1350;42.134;24.708;2023-03-14T06:40:03;99752.50;;;14.85;42.79
2681;BME280;1350;42.134;24.708;2023-03-14T06:42:32;99758.94;;;14.95;41.92
2681;BME280;1350;42.134;24.708;2023-03-14T06:45:00;99758.66;;;14.73;42.04
2681;BME280;1350;42.134;24.708;2023-03-14T06:47:27;99745.53;;;15.35;41.79
2681;BME280;1350;42.134;24.708;2023-03-14T06:49:54;99751.69;;;15.10;40.34
2681;BME280;1350;42.134;24.708;2023-03-14T06:52:20;99750.69;;;16.00;45.02
2681;BME280;1350;42.134;24.708;2023-03-14T06:54:47;99749.88;;;15.50;43.96
2681;BME280;1350;42.134;24.708;2023-03-14T06:57:17;99744.91;;;15.69;41.45
2681;BME280;1350;42.134;24.708;2023-03-14T06:59:43;99740.81;;;16.01;40.40
2681;BME280;1350;42.134;24.708;2023-03-14T07:02:12;99734.75;;;15.23;41.37
2681;BME280;1350;42.134;24.708;2023-03-14T07:04:39;99741.28;;;14.13;42.71
2681;BME280;1350;42.134;24.708;2023-03-14T07:07:06;99735.78;;;14.96;42.17
2681;BME280;1350;42.134;24.708;2023-03-14T07:09:33;99729.59;;;16.32;40.36
2681;BME280;1350;42.134;24.708;2023-03-14T07:12:00;99728.63;;;16.69;39.52
2681;BME280;1350;42.134;24.708;2023-03-14T07:14:27;99723.78;;;17.09;38.95
2681;BME280;1350;42.134;24.708;2023-03-14T07:16:54;99720.16;;;17.66;37.92
2681;BME280;1350;42.134;24.708;2023-03-14T07:19:22;99713.94;;;17.88;36.93
2681;BME280;1350;42.134;24.708;2023-03-14T07:21:49;99705.72;;;18.11;36.98
2681;BME280;1350;42.134;24.708;2023-03-14T07:24:15;99708.34;;;18.56;36.49
2681;BME280;1350;42.134;24.708;2023-03-14T07:26:42;99703.03;;;18.97;35.60
2681;BME280;1350;42.134;24.708;2023-03-14T07:29:09;99691.91;;;19.42;35.86
2681;BME280;1350;42.134;24.708;2023-03-14T07:31:35;99688.94;;;19.66;34.81
2681;BME280;1350;42.134;24.708;2023-03-14T07:34:02;99693.75;;;20.02;34.41
2681;BME280;1350;42.134;24.708;2023-03-14T07:36:30;99694.97;;;20.19;33.12
2681;BME280;1350;42.134;24.708;2023-03-14T07:38:57;99692.47;;;20.46;32.94
2681;BME280;1350;42.134;24.708;2023-03-14T07:41:24;99695.03;;;20.57;32.86
2681;BME280;1350;42.134;24.708;2023-03-14T07:43:51;99692.50;;;20.65;32.38
2681;BME280;1350;42.134;24.708;2023-03-14T07:46:18;99690.03;;;19.33;32.95
2681;BME280;1350;42.134;24.708;2023-03-14T07:48:44;99692.03;;;17.26;35.57
2681;BME280;1350;42.134;24.708;2023-03-14T07:51:11;99687.03;;;15.93;37.17
2681;BME280;1350;42.134;24.708;2023-03-14T07:53:39;99689.28;;;17.61;36.12
2681;BME280;1350;42.134;24.708;2023-03-14T07:56:09;99673.06;;;18.60;35.79
2681;BME280;1350;42.134;24.708;2023-03-14T07:58:35;99682.84;;;19.23;33.78
2681;BME280;1350;42.134;24.708;2023-03-14T08:01:02;99687.63;;;17.25;34.93
2681;BME280;1350;42.134;24.708;2023-03-14T08:03:29;99684.50;;;16.85;35.74
2681;BME280;1350;42.134;24.708;2023-03-14T08:05:56;99674.75;;;16.84;35.69
2681;BME280;1350;42.134;24.708;2023-03-14T08:08:23;99679.25;;;16.84;36.04
2681;BME280;1350;42.134;24.708;2023-03-14T08:10:51;99673.19;;;17.94;35.09
2681;BME280;1350;42.134;24.708;2023-03-14T08:13:18;99671.31;;;18.38;34.11
2681;BME280;1350;42.134;24.708;2023-03-14T08:15:48;99672.19;;;17.40;35.42
2681;BME280;1350;42.134;24.708;2023-03-14T08:18:15;99674.75;;;18.07;34.64
2681;BME280;1350;42.134;24.708;2023-03-14T08:20:41;99672.75;;;18.20;34.21
2681;BME280;1350;42.134;24.708;2023-03-14T08:23:08;99665.03;;;18.49;33.98
2681;BME280;1350;42.134;24.708;2023-03-14T08:25:35;99661.75;;;18.98;33.52
2681;BME280;1350;42.134;24.708;2023-03-14T08:28:03;99655.97;;;17.96;34.95
2681;BME280;1350;42.134;24.708;2023-03-14T08:30:30;99658.41;;;19.05;34.82
2681;BME280;1350;42.134;24.708;2023-03-14T08:32:57;99656.97;;;19.01;33.69
2681;BME280;1350;42.134;24.708;2023-03-14T08:35:24;99651.50;;;18.39;33.96
2681;BME280;1350;42.134;24.708;2023-03-14T08:37:51;99651.44;;;18.82;33.33
2681;BME280;1350;42.134;24.708;2023-03-14T08:40:18;99644.28;;;19.13;33.19
2681;BME280;1350;42.134;24.708;2023-03-14T08:42:45;99641.28;;;18.86;33.25
2681;BME280;1350;42.134;24.708;2023-03-14T08:45:15;99639.00;;;18.81;32.85
2681;BME280;1350;42.134;24.708;2023-03-14T08:47:43;99635.13;;;19.15;33.22
2681;BME280;1350;42.134;24.708;2023-03-14T08:50:11;99630.78;;;18.41;33.88
2681;BME280;1350;42.134;24.708;2023-03-14T08:52:38;99628.84;;;18.85;33.47
2681;BME280;1350;42.134;24.708;2023-03-14T08:55:06;99620.53;;;20.08;32.48
2681;BME280;1350;42.134;24.708;2023-03-14T08:57:33;99608.41;;;20.80;31.76
2681;BME280;1350;42.134;24.708;2023-03-14T09:00:05;99611.19;;;21.17;31.17
2681;BME280;1350;42.134;24.708;2023-03-14T09:02:44;99610.38;;;20.69;31.41
2681;BME280;1350;42.134;24.708;2023-03-14T09:05:12;99598.00;;;19.30;32.36
2681;BME280;1350;42.134;24.708;2023-03-14T09:07:39;99588.19;;;19.98;31.82
2681;BME280;1350;42.134;24.708;2023-03-14T09:10:07;99590.31;;;18.11;33.12
2681;BME280;1350;42.134;24.708;2023-03-14T09:12:35;99576.53;;;19.39;33.07
2681;BME280;1350;42.134;24.708;2023-03-14T09:15:02;99576.94;;;19.35;32.43
2681;BME280;1350;42.134;24.708;2023-03-14T09:17:29;99572.84;;;19.31;32.55
2681;BME280;1350;42.134;24.708;2023-03-14T09:19:57;99575.94;;;19.66;32.21
2681;BME280;1350;42.134;24.708;2023-03-14T09:22:24;99562.44;;;19.56;31.87
2681;BME280;1350;42.134;24.708;2023-03-14T09:28:04;99554.34;;;18.34;32.69
2681;BME280;1350;42.134;24.708;2023-03-14T09:30:31;99536.00;;;18.51;33.31
2681;BME280;1350;42.134;24.708;2023-03-14T09:32:58;99536.59;;;18.22;33.50
2681;BME280;1350;42.134;24.708;2023-03-14T09:35:27;99529.63;;;18.52;33.59
2681;BME280;1350;42.134;24.708;2023-03-14T09:37:54;99527.19;;;19.20;33.27
2681;BME280;1350;42.134;24.708;2023-03-14T09:40:21;99528.03;;;19.50;31.49
2681;BME280;1350;42.134;24.708;2023-03-14T09:42:50;99533.22;;;20.01;31.40
2681;BME280;1350;42.134;24.708;2023-03-14T09:45:24;99517.25;;;19.11;32.24
2681;BME280;1350;42.134;24.708;2023-03-14T09:47:52;99518.53;;;19.56;32.08
2681;BME280;1350;42.134;24.708;2023-03-14T09:50:20;99530.09;;;19.28;31.51
2681;BME280;1350;42.134;24.708;2023-03-14T09:52:51;99526.47;;;17.94;32.36
2681;BME280;1350;42.134;24.708;2023-03-14T09:55:20;99525.53;;;18.36;31.65
2681;BME280;1350;42.134;24.708;2023-03-14T09:57:48;99515.81;;;19.37;30.98
2681;BME280;1350;42.134;24.708;2023-03-14T10:00:18;99516.66;;;20.44;30.35
2681;BME280;1350;42.134;24.708;2023-03-14T10:02:50;99512.31;;;20.98;29.75
2681;BME280;1350;42.134;24.708;2023-03-14T10:05:19;99501.78;;;20.30;30.06
2681;BME280;1350;42.134;24.708;2023-03-14T10:07:47;99502.16;;;19.68;30.60
2681;BME280;1350;42.134;24.708;2023-03-14T10:10:17;99502.22;;;17.53;32.23
2681;BME280;1350;42.134;24.708;2023-03-14T10:12:46;99489.72;;;16.99;33.02
2681;BME280;1350;42.134;24.708;2023-03-14T10:15:15;99482.34;;;17.87;32.49
2681;BME280;1350;42.134;24.708;2023-03-14T10:17:50;99474.81;;;17.81;32.62
2681;BME280;1350;42.134;24.708;2023-03-14T10:20:32;99461.84;;;17.97;31.74
2681;BME280;1350;42.134;24.708;2023-03-14T10:23:03;99461.84;;;17.97;31.76
2681;BME280;1350;42.134;24.708;2023-03-14T10:25:32;99453.34;;;18.84;31.47
2681;BME280;1350;42.134;24.708;2023-03-14T10:28:00;99453.19;;;18.86;30.78
2681;BME280;1350;42.134;24.708;2023-03-14T10:30:39;99450.28;;;18.38;31.34
2681;BME280;1350;42.134;24.708;2023-03-14T10:33:11;99447.63;;;19.08;30.73
2681;BME280;1350;42.134;24.708;2023-03-14T10:35:38;99440.00;;;19.03;30.90
2681;BME280;1350;42.134;24.708;2023-03-14T10:38:12;99438.81;;;19.45;30.70
2681;BME280;1350;42.134;24.708;2023-03-14T10:40:46;99423.09;;;19.41;30.42
2681;BME280;1350;42.134;24.708;2023-03-14T10:43:17;99418.31;;;19.92;30.54
2681;BME280;1350;42.134;24.708;2023-03-14T10:45:51;99412.72;;;19.27;30.27
2681;BME280;1350;42.134;24.708;2023-03-14T10:48:31;99409.72;;;19.11;30.14
2681;BME280;1350;42.134;24.708;2023-03-14T10:51:03;99413.09;;;19.52;29.39
2681;BME280;1350;42.134;24.708;2023-03-14T10:53:39;99403.44;;;20.17;29.33
2681;BME280;1350;42.134;24.708;2023-03-14T10:56:07;99397.34;;;20.24;29.50
2681;BME280;1350;42.134;24.708;2023-03-14T10:58:39;99390.94;;;20.71;29.21
2681;BME280;1350;42.134;24.708;2023-03-14T11:01:26;99379.59;;;19.17;30.37
2681;BME280;1350;42.134;24.708;2023-03-14T11:03:59;99375.63;;;18.11;31.17
2681;BME280;1350;42.134;24.708;2023-03-14T11:06:34;99368.78;;;17.14;32.26
2681;BME280;1350;42.134;24.708;2023-03-14T11:09:10;99356.47;;;17.54;32.82
2681;BME280;1350;42.134;24.708;2023-03-14T11:11:41;99350.16;;;18.36;31.77
2681;BME280;1350;42.134;24.708;2023-03-14T11:14:18;99342.25;;;19.14;31.11
2681;BME280;1350;42.134;24.708;2023-03-14T11:16:53;99336.50;;;18.69;31.54
2681;BME280;1350;42.134;24.708;2023-03-14T11:19:40;99330.31;;;18.38;32.11
2681;BME280;1350;42.134;24.708;2023-03-14T11:22:17;99324.84;;;17.58;33.10
2681;BME280;1350;42.134;24.708;2023-03-14T11:25:00;99302.91;;;18.44;32.65
2681;BME280;1350;42.134;24.708;2023-03-14T11:27:36;99299.72;;;18.30;32.45
2681;BME280;1350;42.134;24.708;2023-03-14T11:30:19;99289.41;;;17.75;33.36
2681;BME280;1350;42.134;24.708;2023-03-14T11:32:54;99289.81;;;17.91;33.55
2681;BME280;1350;42.134;24.708;2023-03-14T11:35:28;99274.19;;;18.05;33.28
2681;BME280;1350;42.134;24.708;2023-03-14T11:38:03;99276.00;;;17.75;33.48
2681;BME280;1350;42.134;24.708;2023-03-14T11:40:35;99259.47;;;17.49;33.87
2681;BME280;1350;42.134;24.708;2023-03-14T11:43:11;99258.63;;;16.97;34.17
2681;BME280;1350;42.134;24.708;2023-03-14T11:45:41;99253.06;;;17.61;33.67
2681;BME280;1350;42.134;24.708;2023-03-14T11:48:16;99235.19;;;16.46;35.16
2681;BME280;1350;42.134;24.708;2023-03-14T11:50:46;99236.03;;;15.81;35.70
2681;BME280;1350;42.134;24.708;2023-03-14T11:53:19;99228.25;;;15.78;36.08
2681;BME280;1350;42.134;24.708;2023-03-14T11:55:50;99217.06;;;16.17;35.49
2681;BME280;1350;42.134;24.708;2023-03-14T11:58:20;99214.53;;;16.69;34.89
2681;BME280;1350;42.134;24.708;2023-03-14T12:00:51;99215.16;;;15.53;36.17
2681;BME280;1350;42.134;24.708;2023-03-14T12:03:25;99200.41;;;16.13;35.68
2681;BME280;1350;42.134;24.708;2023-03-14T12:06:04;99197.03;;;16.65;35.08
2681;BME280;1350;42.134;24.708;2023-03-14T12:08:42;99183.78;;;15.99;35.96
2681;BME280;1350;42.134;24.708;2023-03-14T12:11:18;99168.38;;;15.69;36.32
2681;BME280;1350;42.134;24.708;2023-03-14T12:13:48;99156.97;;;15.45;37.14
2681;BME280;1350;42.134;24.708;2023-03-14T12:16:31;99158.75;;;15.78;37.03
2681;BME280;1350;42.134;24.708;2023-03-14T12:25:03;99135.53;;;15.23;38.05
2681;BME280;1350;42.134;24.708;2023-03-14T12:27:48;99128.28;;;15.69;37.94
2681;BME280;1350;42.134;24.708;2023-03-14T12:30:28;99127.31;;;16.24;37.19
2681;BME280;1350;42.134;24.708;2023-03-14T12:36:04;99112.06;;;16.46;37.17
2681;BME280;1350;42.134;24.708;2023-03-14T12:38:57;99108.81;;;15.78;37.94
2681;BME280;1350;42.134;24.708;2023-03-14T12:41:29;99118.19;;;15.17;38.75
2681;BME280;1350;42.134;24.708;2023-03-14T12:47:46;99106.44;;;15.42;39.28
2681;BME280;1350;42.134;24.708;2023-03-14T12:50:21;99096.31;;;15.79;39.20
2681;BME280;1350;42.134;24.708;2023-03-14T12:56:02;99092.44;;;15.16;39.54
2681;BME280;1350;42.134;24.708;2023-03-14T12:58:35;99080.06;;;15.15;40.21
2681;BME280;1350;42.134;24.708;2023-03-14T13:01:05;99083.47;;;15.62;39.87
2681;BME280;1350;42.134;24.708;2023-03-14T13:03:42;99083.47;;;15.62;39.88
2681;BME280;1350;42.134;24.708;2023-03-14T13:06:45;99083.44;;;14.95;40.68
2681;BME280;1350;42.134;24.708;2023-03-14T13:08:58;99078.84;;;15.19;40.49
2681;BME280;1350;42.134;24.708;2023-03-14T13:11:25;99073.41;;;15.43;39.95
2681;BME280;1350;42.134;24.708;2023-03-14T13:13:56;99078.13;;;15.51;39.76
2681;BME280;1350;42.134;24.708;2023-03-14T13:16:23;99069.13;;;15.30;40.44
2681;BME280;1350;42.134;24.708;2023-03-14T13:18:59;99061.84;;;15.54;40.43
2681;BME280;1350;42.134;24.708;2023-03-14T13:21:34;99055.53;;;15.21;41.17
2681;BME280;1350;42.134;24.708;2023-03-14T13:24:04;99055.91;;;15.28;40.93
2681;BME280;1350;42.134;24.708;2023-03-14T13:26:35;99049.72;;;15.39;40.86
2681;BME280;1350;42.134;24.708;2023-03-14T13:29:09;99049.28;;;14.66;41.73
2681;BME280;1350;42.134;24.708;2023-03-14T13:31:43;99038.91;;;14.85;41.67
2681;BME280;1350;42.134;24.708;2023-03-14T13:34:12;99029.69;;;15.22;41.01
2681;BME280;1350;42.134;24.708;2023-03-14T13:36:39;99026.03;;;15.45;41.17
2681;BME280;1350;42.134;24.708;2023-03-14T13:39:10;99025.44;;;14.97;41.26
2681;BME280;1350;42.134;24.708;2023-03-14T13:41:38;99017.53;;;14.85;41.26
2681;BME280;1350;42.134;24.708;2023-03-14T13:44:07;99011.69;;;15.46;40.48